sensor_id;sensor_type;location;lat;lon;timestamp;P1;durP1;ratioP1;P2;durP2;ratioP2
48161;SDS011;33950;48.154;16.316;2023-02-20T00:01:44;7.68;;;4.38;;
48161;SDS011;33950;48.154;16.316;2023-02-20T00:04:33;10.25;;;4.50;;
48161;SDS011;33950;48.154;16.316;2023-02-20T00:07:19;8.55;;;4.38;;
48161;SDS011;33950;48.154;16.316;2023-02-20T00:10:05;7.03;;;4.53;;
48161;SDS011;33950;48.154;16.316;2023-02-20T00:12:52;7.40;;;4.32;;
48161;SDS011;33950;48.154;16.316;2023-02-20T00:15:38;7.38;;;4.90;;
48161;SDS011;33950;48.154;16.316;2023-02-20T00:18:24;8.00;;;4.50;;
48161;SDS011;33950;48.154;16.316;2023-02-20T00:21:11;8.00;;;4.72;;
48161;SDS011;33950;48.154;16.316;2023-02-20T00:23:58;7.43;;;4.30;;
48161;SDS011;33950;48.154;16.316;2023-02-20T00:26:44;9.82;;;4.57;;
48161;SDS011;33950;48.154;16.316;2023-02-20T00:29:32;7.00;;;3.88;;
48161;SDS011;33950;48.154;16.316;2023-02-20T00:32:18;12.25;;;4.85;;
48161;SDS011;33950;48.154;16.316;2023-02-20T00:35:04;6.38;;;3.85;;
48161;SDS011;33950;48.154;16.316;2023-02-20T00:37:52;9.32;;;5.22;;
48161;SDS011;33950;48.154;16.316;2023-02-20T00:40:39;12.88;;;4.10;;
48161;SDS011;33950;48.154;16.316;2023-02-20T00:43:25;9.05;;;4.63;;
48161;SDS011;33950;48.154;16.316;2023-02-20T00:46:11;9.65;;;3.92;;
48161;SDS011;33950;48.154;16.316;2023-02-20T00:48:59;11.55;;;4.88;;
48161;SDS011;33950;48.154;16.316;2023-02-20T00:51:45;8.82;;;4.05;;
48161;SDS011;33950;48.154;16.316;2023-02-20T00:54:32;7.55;;;3.85;;
48161;SDS011;33950;48.154;16.316;2023-02-20T00:57:18;8.65;;;4.28;;
48161;SDS011;33950;48.154;16.316;2023-02-20T01:00:05;9.13;;;4.00;;
48161;SDS011;33950;48.154;16.316;2023-02-20T01:02:53;9.05;;;4.20;;
48161;SDS011;33950;48.154;16.316;2023-02-20T01:05:39;7.30;;;4.20;;
48161;SDS011;33950;48.154;16.316;2023-02-20T01:08:25;8.50;;;4.15;;
48161;SDS011;33950;48.154;16.316;2023-02-20T01:11:13;10.98;;;4.40;;
48161;SDS011;33950;48.154;16.316;2023-02-20T01:13:59;7.50;;;3.95;;
48161;SDS011;33950;48.154;16.316;2023-02-20T01:16:45;7.32;;;4.15;;
48161;SDS011;33950;48.154;16.316;2023-02-20T01:19:32;11.65;;;4.97;;
48161;SDS011;33950;48.154;16.316;2023-02-20T01:22:19;11.40;;;4.82;;
48161;SDS011;33950;48.154;16.316;2023-02-20T01:25:05;6.85;;;4.40;;
48161;SDS011;33950;48.154;16.316;2023-02-20T01:27:52;10.48;;;5.10;;
48161;SDS011;33950;48.154;16.316;2023-02-20T01:30:38;9.27;;;4.88;;
48161;SDS011;33950;48.154;16.316;2023-02-20T01:33:25;8.27;;;4.70;;
48161;SDS011;33950;48.154;16.316;2023-02-20T01:36:12;10.18;;;4.68;;
48161;SDS011;33950;48.154;16.316;2023-02-20T01:38:59;8.73;;;4.40;;
48161;SDS011;33950;48.154;16.316;2023-02-20T01:41:46;9.30;;;3.97;;
48161;SDS011;33950;48.154;16.316;2023-02-20T01:44:35;7.25;;;4.22;;
48161;SDS011;33950;48.154;16.316;2023-02-20T01:47:22;14.75;;;4.35;;
48161;SDS011;33950;48.154;16.316;2023-02-20T01:50:08;8.65;;;4.80;;
48161;SDS011;33950;48.154;16.316;2023-02-20T01:52:57;7.70;;;4.32;;
48161;SDS011;33950;48.154;16.316;2023-02-20T01:55:46;8.57;;;4.28;;
48161;SDS011;33950;48.154;16.316;2023-02-20T01:58:35;10.50;;;4.63;;
48161;SDS011;33950;48.154;16.316;2023-02-20T02:01:25;7.30;;;3.63;;
48161;SDS011;33950;48.154;16.316;2023-02-20T02:04:11;9.10;;;4.35;;
48161;SDS011;33950;48.154;16.316;2023-02-20T02:06:58;6.88;;;4.10;;
48161;SDS011;33950;48.154;16.316;2023-02-20T02:09:46;6.43;;;3.83;;
48161;SDS011;33950;48.154;16.316;2023-02-20T02:12:35;9.40;;;4.30;;
48161;SDS011;33950;48.154;16.316;2023-02-20T02:15:23;5.90;;;3.67;;
48161;SDS011;33950;48.154;16.316;2023-02-20T02:18:23;10.65;;;4.22;;
48161;SDS011;33950;48.154;16.316;2023-02-20T02:21:46;8.98;;;4.50;;
48161;SDS011;33950;48.154;16.316;2023-02-20T02:25:12;8.70;;;4.78;;
48161;SDS011;33950;48.154;16.316;2023-02-20T02:31:59;7.78;;;4.45;;
48161;SDS011;33950;48.154;16.316;2023-02-20T02:38:24;10.18;;;4.72;;
48161;SDS011;33950;48.154;16.316;2023-02-20T02:41:16;9.85;;;4.70;;
48161;SDS011;33950;48.154;16.316;2023-02-20T02:44:09;8.90;;;4.88;;
48161;SDS011;33950;48.154;16.316;2023-02-20T02:46:58;9.73;;;5.28;;
48161;SDS011;33950;48.154;16.316;2023-02-20T02:49:47;9.18;;;5.10;;
48161;SDS011;33950;48.154;16.316;2023-02-20T02:52:36;8.65;;;5.45;;
48161;SDS011;33950;48.154;16.316;2023-02-20T02:55:35;11.98;;;5.05;;
48161;SDS011;33950;48.154;16.316;2023-02-20T02:58:21;9.88;;;5.35;;
48161;SDS011;33950;48.154;16.316;2023-02-20T03:01:08;17.35;;;6.75;;
48161;SDS011;33950;48.154;16.316;2023-02-20T03:03:54;16.75;;;6.40;;
48161;SDS011;33950;48.154;16.316;2023-02-20T03:06:42;10.82;;;6.30;;
48161;SDS011;33950;48.154;16.316;2023-02-20T03:09:31;12.40;;;7.00;;
48161;SDS011;33950;48.154;16.316;2023-02-20T03:12:21;10.68;;;5.82;;
48161;SDS011;33950;48.154;16.316;2023-02-20T03:15:09;11.60;;;5.88;;
48161;SDS011;33950;48.154;16.316;2023-02-20T03:18:19;13.13;;;6.32;;
48161;SDS011;33950;48.154;16.316;2023-02-20T03:21:12;14.90;;;6.60;;
48161;SDS011;33950;48.154;16.316;2023-02-20T03:24:01;10.52;;;6.10;;
48161;SDS011;33950;48.154;16.316;2023-02-20T03:26:49;9.85;;;5.63;;
48161;SDS011;33950;48.154;16.316;2023-02-20T03:29:39;11.88;;;5.78;;
48161;SDS011;33950;48.154;16.316;2023-02-20T03:32:26;9.80;;;5.85;;
48161;SDS011;33950;48.154;16.316;2023-02-20T03:35:33;14.75;;;6.25;;
48161;SDS011;33950;48.154;16.316;2023-02-20T03:38:41;9.40;;;5.20;;
48161;SDS011;33950;48.154;16.316;2023-02-20T03:41:49;14.95;;;5.75;;
48161;SDS011;33950;48.154;16.316;2023-02-20T03:44:58;18.17;;;6.18;;
48161;SDS011;33950;48.154;16.316;2023-02-20T03:47:46;11.15;;;5.25;;
48161;SDS011;33950;48.154;16.316;2023-02-20T03:50:37;11.27;;;4.75;;
48161;SDS011;33950;48.154;16.316;2023-02-20T03:53:23;9.55;;;3.88;;
48161;SDS011;33950;48.154;16.316;2023-02-20T03:56:11;9.68;;;3.90;;
48161;SDS011;33950;48.154;16.316;2023-02-20T03:59:01;10.80;;;4.15;;
48161;SDS011;33950;48.154;16.316;2023-02-20T04:01:53;8.68;;;4.75;;
48161;SDS011;33950;48.154;16.316;2023-02-20T04:04:43;7.35;;;4.13;;
48161;SDS011;33950;48.154;16.316;2023-02-20T04:07:33;12.90;;;4.55;;
48161;SDS011;33950;48.154;16.316;2023-02-20T04:10:24;13.63;;;5.78;;
48161;SDS011;33950;48.154;16.316;2023-02-20T04:13:14;13.23;;;6.05;;
48161;SDS011;33950;48.154;16.316;2023-02-20T04:16:01;9.70;;;5.47;;
48161;SDS011;33950;48.154;16.316;2023-02-20T04:18:50;11.35;;;6.07;;
48161;SDS011;33950;48.154;16.316;2023-02-20T04:21:37;12.18;;;6.90;;
48161;SDS011;33950;48.154;16.316;2023-02-20T04:24:28;12.50;;;6.00;;
48161;SDS011;33950;48.154;16.316;2023-02-20T04:27:16;15.48;;;7.15;;
48161;SDS011;33950;48.154;16.316;2023-02-20T04:30:03;12.27;;;7.25;;
48161;SDS011;33950;48.154;16.316;2023-02-20T04:32:50;14.85;;;7.65;;
48161;SDS011;33950;48.154;16.316;2023-02-20T04:35:38;18.35;;;6.93;;
48161;SDS011;33950;48.154;16.316;2023-02-20T04:38:24;15.05;;;6.40;;
48161;SDS011;33950;48.154;16.316;2023-02-20T04:41:10;10.57;;;6.13;;
48161;SDS011;33950;48.154;16.316;2023-02-20T04:43:56;18.20;;;6.45;;
48161;SDS011;33950;48.154;16.316;2023-02-20T04:47:01;10.65;;;6.25;;
48161;SDS011;33950;48.154;16.316;2023-02-20T04:49:50;19.75;;;5.93;;
48161;SDS011;33950;48.154;16.316;2023-02-20T04:52:37;14.70;;;6.78;;
48161;SDS011;33950;48.154;16.316;2023-02-20T04:55:24;12.60;;;6.20;;
48161;SDS011;33950;48.154;16.316;2023-02-20T04:58:10;14.25;;;6.47;;
48161;SDS011;33950;48.154;16.316;2023-02-20T05:00:56;14.32;;;6.57;;
48161;SDS011;33950;48.154;16.316;2023-02-20T05:03:42;12.93;;;5.68;;
48161;SDS011;33950;48.154;16.316;2023-02-20T05:06:28;10.63;;;5.72;;
48161;SDS011;33950;48.154;16.316;2023-02-20T05:09:16;15.40;;;6.15;;
48161;SDS011;33950;48.154;16.316;2023-02-20T05:12:02;12.70;;;6.65;;
48161;SDS011;33950;48.154;16.316;2023-02-20T05:14:49;15.52;;;5.90;;
48161;SDS011;33950;48.154;16.316;2023-02-20T05:17:35;10.63;;;5.80;;
48161;SDS011;33950;48.154;16.316;2023-02-20T05:20:21;8.55;;;4.93;;
48161;SDS011;33950;48.154;16.316;2023-02-20T05:23:27;12.43;;;5.88;;
48161;SDS011;33950;48.154;16.316;2023-02-20T05:26:17;10.07;;;5.97;;
48161;SDS011;33950;48.154;16.316;2023-02-20T05:29:05;8.90;;;5.10;;
48161;SDS011;33950;48.154;16.316;2023-02-20T05:31:51;11.25;;;5.30;;
48161;SDS011;33950;48.154;16.316;2023-02-20T05:34:37;13.90;;;4.85;;
48161;SDS011;33950;48.154;16.316;2023-02-20T05:37:24;10.98;;;4.97;;
48161;SDS011;33950;48.154;16.316;2023-02-20T05:40:11;12.45;;;4.78;;
48161;SDS011;33950;48.154;16.316;2023-02-20T05:42:59;10.30;;;4.60;;
48161;SDS011;33950;48.154;16.316;2023-02-20T05:45:45;12.02;;;4.78;;
48161;SDS011;33950;48.154;16.316;2023-02-20T05:48:31;9.32;;;4.18;;
48161;SDS011;33950;48.154;16.316;2023-02-20T05:51:18;8.50;;;4.78;;
48161;SDS011;33950;48.154;16.316;2023-02-20T05:54:05;9.43;;;4.35;;
48161;SDS011;33950;48.154;16.316;2023-02-20T05:56:51;10.07;;;4.72;;
48161;SDS011;33950;48.154;16.316;2023-02-20T05:59:39;8.18;;;4.47;;
48161;SDS011;33950;48.154;16.316;2023-02-20T06:02:25;7.85;;;4.97;;
48161;SDS011;33950;48.154;16.316;2023-02-20T06:05:12;8.40;;;4.93;;
48161;SDS011;33950;48.154;16.316;2023-02-20T06:07:59;10.05;;;5.07;;
48161;SDS011;33950;48.154;16.316;2023-02-20T06:10:45;11.35;;;5.28;;
48161;SDS011;33950;48.154;16.316;2023-02-20T06:13:31;12.95;;;5.47;;
48161;SDS011;33950;48.154;16.316;2023-02-20T06:16:21;12.70;;;5.00;;
48161;SDS011;33950;48.154;16.316;2023-02-20T06:19:09;17.42;;;5.45;;
48161;SDS011;33950;48.154;16.316;2023-02-20T06:21:55;11.57;;;5.30;;
48161;SDS011;33950;48.154;16.316;2023-02-20T06:24:43;11.32;;;5.05;;
48161;SDS011;33950;48.154;16.316;2023-02-20T06:27:31;12.23;;;5.22;;
48161;SDS011;33950;48.154;16.316;2023-02-20T06:30:17;10.95;;;5.30;;
48161;SDS011;33950;48.154;16.316;2023-02-20T06:33:04;9.38;;;5.18;;
48161;SDS011;33950;48.154;16.316;2023-02-20T06:35:50;14.95;;;5.50;;
48161;SDS011;33950;48.154;16.316;2023-02-20T06:38:37;15.90;;;5.55;;
48161;SDS011;33950;48.154;16.316;2023-02-20T06:41:23;9.77;;;5.07;;
48161;SDS011;33950;48.154;16.316;2023-02-20T06:44:09;11.38;;;5.32;;
48161;SDS011;33950;48.154;16.316;2023-02-20T06:46:55;13.10;;;5.75;;
48161;SDS011;33950;48.154;16.316;2023-02-20T06:49:43;16.23;;;6.00;;
48161;SDS011;33950;48.154;16.316;2023-02-20T06:52:29;14.18;;;5.88;;
48161;SDS011;33950;48.154;16.316;2023-02-20T06:55:15;15.27;;;6.15;;
48161;SDS011;33950;48.154;16.316;2023-02-20T06:58:01;13.77;;;6.25;;
48161;SDS011;33950;48.154;16.316;2023-02-20T07:00:47;10.95;;;5.55;;
48161;SDS011;33950;48.154;16.316;2023-02-20T07:03:34;15.48;;;5.53;;
48161;SDS011;33950;48.154;16.316;2023-02-20T07:06:23;14.30;;;6.53;;
48161;SDS011;33950;48.154;16.316;2023-02-20T07:09:10;13.18;;;5.35;;
48161;SDS011;33950;48.154;16.316;2023-02-20T07:11:56;11.77;;;4.93;;
48161;SDS011;33950;48.154;16.316;2023-02-20T07:14:42;13.68;;;4.90;;
48161;SDS011;33950;48.154;16.316;2023-02-20T07:17:28;10.93;;;4.45;;
48161;SDS011;33950;48.154;16.316;2023-02-20T07:20:14;14.23;;;5.38;;
48161;SDS011;33950;48.154;16.316;2023-02-20T07:23:02;11.63;;;3.78;;
48161;SDS011;33950;48.154;16.316;2023-02-20T07:25:48;11.80;;;4.13;;
48161;SDS011;33950;48.154;16.316;2023-02-20T07:28:35;8.07;;;3.45;;
48161;SDS011;33950;48.154;16.316;2023-02-20T07:31:21;9.02;;;4.07;;
48161;SDS011;33950;48.154;16.316;2023-02-20T07:34:07;7.60;;;3.45;;
48161;SDS011;33950;48.154;16.316;2023-02-20T07:36:54;10.02;;;3.38;;
48161;SDS011;33950;48.154;16.316;2023-02-20T07:39:41;6.85;;;3.28;;
48161;SDS011;33950;48.154;16.316;2023-02-20T07:42:27;5.18;;;3.78;;
48161;SDS011;33950;48.154;16.316;2023-02-20T07:45:13;13.00;;;4.45;;
48161;SDS011;33950;48.154;16.316;2023-02-20T07:47:59;10.30;;;3.47;;
48161;SDS011;33950;48.154;16.316;2023-02-20T07:50:45;6.45;;;3.35;;
48161;SDS011;33950;48.154;16.316;2023-02-20T07:53:31;6.35;;;3.35;;
48161;SDS011;33950;48.154;16.316;2023-02-20T07:56:20;7.03;;;3.53;;
48161;SDS011;33950;48.154;16.316;2023-02-20T07:59:07;6.60;;;2.95;;
48161;SDS011;33950;48.154;16.316;2023-02-20T08:01:54;9.75;;;3.30;;
48161;SDS011;33950;48.154;16.316;2023-02-20T08:04:40;5.63;;;3.50;;
48161;SDS011;33950;48.154;16.316;2023-02-20T08:07:26;14.95;;;5.07;;
48161;SDS011;33950;48.154;16.316;2023-02-20T08:10:12;7.22;;;3.08;;
48161;SDS011;33950;48.154;16.316;2023-02-20T08:13:00;9.68;;;3.70;;
48161;SDS011;33950;48.154;16.316;2023-02-20T08:15:47;10.98;;;3.70;;
48161;SDS011;33950;48.154;16.316;2023-02-20T08:18:33;6.03;;;2.90;;
48161;SDS011;33950;48.154;16.316;2023-02-20T08:21:19;4.38;;;2.42;;
48161;SDS011;33950;48.154;16.316;2023-02-20T08:24:06;7.20;;;2.95;;
48161;SDS011;33950;48.154;16.316;2023-02-20T08:26:52;8.93;;;3.10;;
48161;SDS011;33950;48.154;16.316;2023-02-20T08:29:40;5.47;;;3.15;;
48161;SDS011;33950;48.154;16.316;2023-02-20T08:32:27;9.80;;;3.80;;
48161;SDS011;33950;48.154;16.316;2023-02-20T08:35:13;6.13;;;3.20;;
48161;SDS011;33950;48.154;16.316;2023-02-20T08:37:59;4.80;;;2.78;;
48161;SDS011;33950;48.154;16.316;2023-02-20T08:40:46;10.35;;;3.00;;
48161;SDS011;33950;48.154;16.316;2023-02-20T08:43:32;7.05;;;3.00;;
48161;SDS011;33950;48.154;16.316;2023-02-20T08:46:20;9.35;;;3.47;;
48161;SDS011;33950;48.154;16.316;2023-02-20T08:49:07;6.20;;;3.00;;
48161;SDS011;33950;48.154;16.316;2023-02-20T08:51:53;9.85;;;2.58;;
48161;SDS011;33950;48.154;16.316;2023-02-20T08:54:43;7.13;;;2.92;;
48161;SDS011;33950;48.154;16.316;2023-02-20T08:57:29;12.38;;;3.15;;
48161;SDS011;33950;48.154;16.316;2023-02-20T09:00:15;8.10;;;2.88;;
48161;SDS011;33950;48.154;16.316;2023-02-20T09:03:04;7.78;;;3.17;;
48161;SDS011;33950;48.154;16.316;2023-02-20T09:05:53;6.40;;;3.30;;
48161;SDS011;33950;48.154;16.316;2023-02-20T09:08:39;5.07;;;2.08;;
48161;SDS011;33950;48.154;16.316;2023-02-20T09:11:25;7.18;;;3.08;;
48161;SDS011;33950;48.154;16.316;2023-02-20T09:14:11;11.20;;;3.10;;
48161;SDS011;33950;48.154;16.316;2023-02-20T09:16:58;5.18;;;2.90;;
48161;SDS011;33950;48.154;16.316;2023-02-20T09:19:45;6.90;;;3.05;;
48161;SDS011;33950;48.154;16.316;2023-02-20T09:22:32;5.60;;;2.85;;
48161;SDS011;33950;48.154;16.316;2023-02-20T09:25:18;5.55;;;2.55;;
48161;SDS011;33950;48.154;16.316;2023-02-20T09:28:04;9.15;;;3.00;;
48161;SDS011;33950;48.154;16.316;2023-02-20T09:30:50;16.85;;;3.65;;
48161;SDS011;33950;48.154;16.316;2023-02-20T09:33:42;6.10;;;2.67;;
48161;SDS011;33950;48.154;16.316;2023-02-20T09:36:30;9.63;;;3.05;;
48161;SDS011;33950;48.154;16.316;2023-02-20T09:39:17;11.43;;;2.92;;
48161;SDS011;33950;48.154;16.316;2023-02-20T09:42:11;9.15;;;2.80;;
48161;SDS011;33950;48.154;16.316;2023-02-20T09:45:09;9.30;;;2.75;;
48161;SDS011;33950;48.154;16.316;2023-02-20T09:48:05;9.73;;;2.95;;
48161;SDS011;33950;48.154;16.316;2023-02-20T09:51:01;6.05;;;3.10;;
48161;SDS011;33950;48.154;16.316;2023-02-20T09:53:54;6.45;;;2.85;;
48161;SDS011;33950;48.154;16.316;2023-02-20T09:56:48;6.47;;;2.80;;
48161;SDS011;33950;48.154;16.316;2023-02-20T09:59:37;9.77;;;2.38;;
48161;SDS011;33950;48.154;16.316;2023-02-20T10:02:27;8.15;;;2.58;;
48161;SDS011;33950;48.154;16.316;2023-02-20T10:05:17;4.35;;;2.08;;
48161;SDS011;33950;48.154;16.316;2023-02-20T10:08:07;10.07;;;2.67;;
48161;SDS011;33950;48.154;16.316;2023-02-20T10:10:56;7.00;;;2.50;;
48161;SDS011;33950;48.154;16.316;2023-02-20T10:13:51;7.65;;;2.30;;
48161;SDS011;33950;48.154;16.316;2023-02-20T10:16:48;6.95;;;2.17;;
48161;SDS011;33950;48.154;16.316;2023-02-20T10:19:42;7.75;;;1.90;;
48161;SDS011;33950;48.154;16.316;2023-02-20T10:22:34;4.57;;;3.00;;
48161;SDS011;33950;48.154;16.316;2023-02-20T10:25:25;6.28;;;2.15;;
48161;SDS011;33950;48.154;16.316;2023-02-20T10:28:16;6.88;;;2.13;;
48161;SDS011;33950;48.154;16.316;2023-02-20T10:31:05;10.18;;;2.42;;
48161;SDS011;33950;48.154;16.316;2023-02-20T10:34:04;12.85;;;2.47;;
48161;SDS011;33950;48.154;16.316;2023-02-20T10:36:55;4.50;;;1.92;;
48161;SDS011;33950;48.154;16.316;2023-02-20T10:39:49;9.60;;;2.53;;
48161;SDS011;33950;48.154;16.316;2023-02-20T10:42:40;9.00;;;2.30;;
48161;SDS011;33950;48.154;16.316;2023-02-20T10:45:35;6.05;;;2.30;;
48161;SDS011;33950;48.154;16.316;2023-02-20T10:48:27;5.55;;;2.75;;
48161;SDS011;33950;48.154;16.316;2023-02-20T10:51:16;4.18;;;1.98;;
48161;SDS011;33950;48.154;16.316;2023-02-20T10:54:06;3.28;;;2.00;;
48161;SDS011;33950;48.154;16.316;2023-02-20T10:56:56;2.50;;;1.40;;
48161;SDS011;33950;48.154;16.316;2023-02-20T10:59:47;6.85;;;1.92;;
48161;SDS011;33950;48.154;16.316;2023-02-20T11:02:43;6.00;;;1.60;;
48161;SDS011;33950;48.154;16.316;2023-02-20T11:05:34;4.30;;;1.58;;
48161;SDS011;33950;48.154;16.316;2023-02-20T11:08:24;4.47;;;1.85;;
48161;SDS011;33950;48.154;16.316;2023-02-20T11:11:20;5.13;;;2.03;;
48161;SDS011;33950;48.154;16.316;2023-02-20T11:14:10;5.43;;;2.65;;
48161;SDS011;33950;48.154;16.316;2023-02-20T11:16:59;3.25;;;1.67;;
48161;SDS011;33950;48.154;16.316;2023-02-20T11:19:52;5.45;;;2.00;;
48161;SDS011;33950;48.154;16.316;2023-02-20T11:22:42;3.75;;;1.85;;
48161;SDS011;33950;48.154;16.316;2023-02-20T11:25:29;5.28;;;2.00;;
48161;SDS011;33950;48.154;16.316;2023-02-20T11:28:19;4.50;;;1.60;;
48161;SDS011;33950;48.154;16.316;2023-02-20T11:31:07;5.45;;;1.45;;
48161;SDS011;33950;48.154;16.316;2023-02-20T11:33:53;2.67;;;1.90;;
48161;SDS011;33950;48.154;16.316;2023-02-20T11:36:43;6.13;;;1.58;;
48161;SDS011;33950;48.154;16.316;2023-02-20T11:39:33;4.68;;;1.48;;
48161;SDS011;33950;48.154;16.316;2023-02-20T11:42:20;7.82;;;1.70;;
48161;SDS011;33950;48.154;16.316;2023-02-20T11:45:11;6.82;;;1.73;;
48161;SDS011;33950;48.154;16.316;2023-02-20T11:48:06;6.82;;;1.65;;
48161;SDS011;33950;48.154;16.316;2023-02-20T11:50:55;2.60;;;1.30;;
48161;SDS011;33950;48.154;16.316;2023-02-20T11:53:42;3.45;;;1.80;;
48161;SDS011;33950;48.154;16.316;2023-02-20T11:56:28;3.20;;;1.73;;
48161;SDS011;33950;48.154;16.316;2023-02-20T11:59:25;6.32;;;1.83;;
48161;SDS011;33950;48.154;16.316;2023-02-20T12:02:26;3.92;;;1.67;;
48161;SDS011;33950;48.154;16.316;2023-02-20T12:05:13;3.95;;;2.15;;
48161;SDS011;33950;48.154;16.316;2023-02-20T12:07:59;3.05;;;1.52;;
48161;SDS011;33950;48.154;16.316;2023-02-20T12:10:47;14.18;;;1.90;;
48161;SDS011;33950;48.154;16.316;2023-02-20T12:13:37;26.23;;;1.60;;
48161;SDS011;33950;48.154;16.316;2023-02-20T12:16:27;2.85;;;1.30;;
48161;SDS011;33950;48.154;16.316;2023-02-20T12:19:25;6.13;;;1.42;;
48161;SDS011;33950;48.154;16.316;2023-02-20T12:22:17;3.58;;;1.60;;
48161;SDS011;33950;48.154;16.316;2023-02-20T12:25:17;2.20;;;1.40;;
48161;SDS011;33950;48.154;16.316;2023-02-20T12:28:12;4.55;;;1.63;;
48161;SDS011;33950;48.154;16.316;2023-02-20T12:31:11;1.85;;;1.13;;
48161;SDS011;33950;48.154;16.316;2023-02-20T12:34:08;7.65;;;1.30;;
48161;SDS011;33950;48.154;16.316;2023-02-20T12:37:06;8.75;;;1.48;;
48161;SDS011;33950;48.154;16.316;2023-02-20T12:40:01;13.00;;;2.63;;
48161;SDS011;33950;48.154;16.316;2023-02-20T12:42:56;3.00;;;1.40;;
48161;SDS011;33950;48.154;16.316;2023-02-20T12:45:51;4.68;;;1.23;;
48161;SDS011;33950;48.154;16.316;2023-02-20T12:48:48;12.40;;;1.40;;
48161;SDS011;33950;48.154;16.316;2023-02-20T12:51:48;10.67;;;2.37;;
48161;SDS011;33950;48.154;16.316;2023-02-20T12:54:41;9.05;;;1.10;;
48161;SDS011;33950;48.154;16.316;2023-02-20T12:57:44;5.28;;;1.63;;
48161;SDS011;33950;48.154;16.316;2023-02-20T13:00:37;2.80;;;1.20;;
48161;SDS011;33950;48.154;16.316;2023-02-20T13:03:30;3.75;;;1.40;;
48161;SDS011;33950;48.154;16.316;2023-02-20T13:06:26;5.35;;;1.75;;
48161;SDS011;33950;48.154;16.316;2023-02-20T13:09:17;6.15;;;1.83;;
48161;SDS011;33950;48.154;16.316;2023-02-20T13:12:08;2.22;;;0.93;;
48161;SDS011;33950;48.154;16.316;2023-02-20T13:14:59;2.75;;;1.10;;
48161;SDS011;33950;48.154;16.316;2023-02-20T13:17:55;7.07;;;1.20;;
48161;SDS011;33950;48.154;16.316;2023-02-20T13:20:48;5.70;;;2.13;;
48161;SDS011;33950;48.154;16.316;2023-02-20T13:23:37;7.35;;;1.50;;
48161;SDS011;33950;48.154;16.316;2023-02-20T13:29:31;5.30;;;0.95;;
48161;SDS011;33950;48.154;16.316;2023-02-20T13:32:21;8.15;;;1.33;;
48161;SDS011;33950;48.154;16.316;2023-02-20T13:38:32;3.60;;;1.02;;
48161;SDS011;33950;48.154;16.316;2023-02-20T13:41:18;19.35;;;1.85;;
48161;SDS011;33950;48.154;16.316;2023-02-20T13:50:26;6.68;;;1.02;;
48161;SDS011;33950;48.154;16.316;2023-02-20T13:53:17;1.92;;;0.80;;
48161;SDS011;33950;48.154;16.316;2023-02-20T13:56:10;1.10;;;0.60;;
48161;SDS011;33950;48.154;16.316;2023-02-20T13:58:59;13.63;;;0.70;;
48161;SDS011;33950;48.154;16.316;2023-02-20T14:01:56;3.47;;;1.17;;
48161;SDS011;33950;48.154;16.316;2023-02-20T14:04:53;4.80;;;1.42;;
48161;SDS011;33950;48.154;16.316;2023-02-20T14:07:42;2.80;;;0.77;;
48161;SDS011;33950;48.154;16.316;2023-02-20T14:10:31;2.05;;;0.80;;
48161;SDS011;33950;48.154;16.316;2023-02-20T14:13:21;1.60;;;0.70;;
48161;SDS011;33950;48.154;16.316;2023-02-20T14:19:17;1.98;;;1.10;;
48161;SDS011;33950;48.154;16.316;2023-02-20T14:22:22;4.68;;;0.68;;
48161;SDS011;33950;48.154;16.316;2023-02-20T14:25:21;6.10;;;1.23;;
48161;SDS011;33950;48.154;16.316;2023-02-20T14:28:11;1.88;;;0.80;;
48161;SDS011;33950;48.154;16.316;2023-02-20T14:31:04;4.70;;;1.00;;
48161;SDS011;33950;48.154;16.316;2023-02-20T14:34:06;2.28;;;0.80;;
48161;SDS011;33950;48.154;16.316;2023-02-20T14:36:57;7.23;;;1.07;;
48161;SDS011;33950;48.154;16.316;2023-02-20T14:39:49;1.58;;;0.73;;
48161;SDS011;33950;48.154;16.316;2023-02-20T14:42:46;4.75;;;1.00;;
48161;SDS011;33950;48.154;16.316;2023-02-20T14:45:32;5.32;;;0.75;;
48161;SDS011;33950;48.154;16.316;2023-02-20T14:48:24;3.90;;;1.02;;
48161;SDS011;33950;48.154;16.316;2023-02-20T14:51:12;2.15;;;0.85;;
48161;SDS011;33950;48.154;16.316;2023-02-20T14:54:00;3.42;;;1.25;;
48161;SDS011;33950;48.154;16.316;2023-02-20T14:56:48;6.35;;;1.20;;
48161;SDS011;33950;48.154;16.316;2023-02-20T14:59:37;1.73;;;0.90;;
48161;SDS011;33950;48.154;16.316;2023-02-20T15:02:25;4.38;;;0.82;;
48161;SDS011;33950;48.154;16.316;2023-02-20T15:05:14;1.17;;;0.73;;
48161;SDS011;33950;48.154;16.316;2023-02-20T15:08:09;4.32;;;0.93;;
48161;SDS011;33950;48.154;16.316;2023-02-20T15:11:05;3.58;;;0.85;;
48161;SDS011;33950;48.154;16.316;2023-02-20T15:13:53;5.22;;;0.85;;
48161;SDS011;33950;48.154;16.316;2023-02-20T15:16:40;1.48;;;0.77;;
48161;SDS011;33950;48.154;16.316;2023-02-20T15:19:31;1.63;;;0.70;;
48161;SDS011;33950;48.154;16.316;2023-02-20T15:22:24;1.20;;;0.52;;
48161;SDS011;33950;48.154;16.316;2023-02-20T15:25:25;6.07;;;0.50;;
48161;SDS011;33950;48.154;16.316;2023-02-20T15:28:22;5.75;;;0.77;;
48161;SDS011;33950;48.154;16.316;2023-02-20T15:31:19;2.90;;;0.55;;
48161;SDS011;33950;48.154;16.316;2023-02-20T15:34:11;6.32;;;0.80;;
48161;SDS011;33950;48.154;16.316;2023-02-20T15:37:01;0.90;;;0.40;;
48161;SDS011;33950;48.154;16.316;2023-02-20T15:40:06;2.83;;;0.70;;
48161;SDS011;33950;48.154;16.316;2023-02-20T15:43:01;3.75;;;0.80;;
48161;SDS011;33950;48.154;16.316;2023-02-20T15:45:51;1.35;;;0.60;;
48161;SDS011;33950;48.154;16.316;2023-02-20T15:48:37;1.55;;;0.70;;
48161;SDS011;33950;48.154;16.316;2023-02-20T15:51:23;1.70;;;0.80;;
48161;SDS011;33950;48.154;16.316;2023-02-20T15:54:12;4.95;;;0.90;;
48161;SDS011;33950;48.154;16.316;2023-02-20T15:57:02;8.88;;;1.45;;
48161;SDS011;33950;48.154;16.316;2023-02-20T15:59:57;6.25;;;0.82;;
48161;SDS011;33950;48.154;16.316;2023-02-20T16:02:43;1.42;;;0.52;;
48161;SDS011;33950;48.154;16.316;2023-02-20T16:05:29;0.98;;;0.57;;
48161;SDS011;33950;48.154;16.316;2023-02-20T16:08:15;0.60;;;0.50;;
48161;SDS011;33950;48.154;16.316;2023-02-20T16:11:02;1.33;;;0.63;;
48161;SDS011;33950;48.154;16.316;2023-02-20T16:13:52;1.02;;;0.50;;
48161;SDS011;33950;48.154;16.316;2023-02-20T16:16:43;2.55;;;0.70;;
48161;SDS011;33950;48.154;16.316;2023-02-20T16:19:30;3.17;;;0.77;;
48161;SDS011;33950;48.154;16.316;2023-02-20T16:22:16;4.05;;;0.82;;
48161;SDS011;33950;48.154;16.316;2023-02-20T16:25:02;4.78;;;0.98;;
48161;SDS011;33950;48.154;16.316;2023-02-20T16:27:50;1.88;;;0.90;;
48161;SDS011;33950;48.154;16.316;2023-02-20T16:30:41;5.57;;;0.77;;
48161;SDS011;33950;48.154;16.316;2023-02-20T16:33:29;8.80;;;1.48;;
48161;SDS011;33950;48.154;16.316;2023-02-20T16:36:16;4.43;;;1.02;;
48161;SDS011;33950;48.154;16.316;2023-02-20T16:39:02;3.08;;;0.80;;
48161;SDS011;33950;48.154;16.316;2023-02-20T16:41:48;1.17;;;0.50;;
48161;SDS011;33950;48.154;16.316;2023-02-20T16:44:34;5.00;;;0.82;;
48161;SDS011;33950;48.154;16.316;2023-02-20T16:47:25;1.15;;;0.47;;
48161;SDS011;33950;48.154;16.316;2023-02-20T16:50:14;3.08;;;0.85;;
48161;SDS011;33950;48.154;16.316;2023-02-20T16:53:04;4.95;;;1.08;;
48161;SDS011;33950;48.154;16.316;2023-02-20T16:55:50;1.52;;;0.85;;
48161;SDS011;33950;48.154;16.316;2023-02-20T16:58:36;1.60;;;0.80;;
48161;SDS011;33950;48.154;16.316;2023-02-20T17:01:22;3.25;;;0.90;;
48161;SDS011;33950;48.154;16.316;2023-02-20T17:04:10;3.00;;;0.77;;
48161;SDS011;33950;48.154;16.316;2023-02-20T17:06:58;11.07;;;1.85;;